Time;durP1;ratioP1;P1;durP2;ratioP2;P2;SDS_P1;SDS_P2;PMS_P1;PMS_P2;Temp;Humidity;BMP_temperature;BMP_pressure;BME280_temperature;BME280_humidity;BME280_pressure;Samples;Min_cycle;Max_cycle;Signal;HPM_P1;HPM_P2
2022/10/26 00:01:35;;;;;;;60.63;30.37;;;;;;;;;;6174521;28;20042;-74
2022/10/26 00:04:35;;;;;;;55.30;27.88;;;;;;;;;;6174334;28;20019;-75
2022/10/26 00:07:35;;;;;;;75.75;34.72;;;;;;;;;;6168905;28;20527;-74
2022/10/26 00:10:37;;;;;;;75.27;32.43;;;;;;;;;;6171519;28;20038;-74
2022/10/26 00:13:38;;;;;;;56.15;32.17;;;;;;;;;;6156328;28;20553;-74
2022/10/26 00:16:38;;;;;;;57.70;31.10;;;;;;;;;;6169313;28;20019;-74
2022/10/26 00:19:38;;;;;;;55.88;31.70;;;;;;;;;;6173307;28;20034;-74
2022/10/26 00:22:39;;;;;;;51.83;30.40;;;;;;;;;;6166754;28;20505;-74
2022/10/26 00:25:39;;;;;;;47.27;28.10;;;;;;;;;;6173003;28;20066;-75
2022/10/26 00:28:39;;;;;;;53.53;29.30;;;;;;;;;;6172688;28;20360;-74
2022/10/26 00:31:39;;;;;;;51.67;26.17;;;;;;;;;;6174321;28;20030;-74
2022/10/26 00:34:39;;;;;;;54.40;25.70;;;;;;;;;;6173622;28;20015;-74
2022/10/26 00:37:40;;;;;;;54.05;27.35;;;;;;;;;;6167784;28;20037;-74
2022/10/26 00:40:40;;;;;;;63.40;31.33;;;;;;;;;;6173739;28;20031;-74
2022/10/26 00:43:40;;;;;;;79.27;32.27;;;;;;;;;;6185930;28;20026;-74
2022/10/26 00:46:40;;;;;;;68.20;30.43;;;;;;;;;;6175812;28;20383;-74
2022/10/26 00:49:41;;;;;;;83.10;26.80;;;;;;;;;;6168338;28;20482;-74
2022/10/26 00:52:42;;;;;;;45.17;26.17;;;;;;;;;;6173137;28;20022;-74
2022/10/26 00:55:44;;;;;;;51.37;26.63;;;;;;;;;;6186131;28;20101;-75
2022/10/26 00:58:45;;;;;;;51.92;25.67;;;;;;;;;;6170588;28;20476;-74
2022/10/26 01:01:46;;;;;;;53.80;26.10;;;;;;;;;;6173601;28;20014;-74
2022/10/26 01:04:46;;;;;;;46.03;27.27;;;;;;;;;;6172179;28;20023;-74
2022/10/26 01:07:47;;;;;;;51.73;25.57;;;;;;;;;;6170319;28;20027;-74
2022/10/26 01:10:47;;;;;;;47.30;24.77;;;;;;;;;;6177642;28;20119;-74
2022/10/26 01:13:49;;;;;;;60.70;26.87;;;;;;;;;;6180469;28;20029;-74
2022/10/26 01:17:01;;;;;;;43.30;24.08;;;;;;;;;;6177791;28;20073;-74
2022/10/26 01:20:10;;;;;;;53.25;24.85;;;;;;;;;;6173976;28;20487;-74
2022/10/26 01:23:16;;;;;;;69.38;24.85;;;;;;;;;;6161066;28;20093;-74
2022/10/26 01:26:16;;;;;;;105.57;31.85;;;;;;;;;;6141538;28;20022;-74
2022/10/26 01:29:35;;;;;;;42.97;23.20;;;;;;;;;;6176527;28;20035;-74
2022/10/26 01:32:41;;;;;;;49.92;22.90;;;;;;;;;;6183741;28;20014;-74
2022/10/26 01:36:01;;;;;;;47.63;21.90;;;;;;;;;;6177597;28;20383;-74
2022/10/26 01:39:07;;;;;;;53.55;23.20;;;;;;;;;;6188875;28;20038;-74
2022/10/26 01:42:09;;;;;;;50.17;22.83;;;;;;;;;;6194818;28;20018;-74
2022/10/26 01:45:12;;;;;;;50.17;23.58;;;;;;;;;;6168320;28;20022;-74
2022/10/26 01:48:13;;;;;;;72.45;28.58;;;;;;;;;;6172541;28;20166;-74
2022/10/26 01:51:14;;;;;;;51.63;25.98;;;;;;;;;;6176926;28;20538;-74
2022/10/26 01:54:14;;;;;;;52.40;24.48;;;;;;;;;;6175362;28;20023;-74
2022/10/26 01:57:16;;;;;;;48.03;24.97;;;;;;;;;;6159833;28;20451;-74
2022/10/26 02:00:17;;;;;;;55.75;27.80;;;;;;;;;;6166737;28;20037;-74
2022/10/26 02:03:29;;;;;;;60.00;26.20;;;;;;;;;;6172390;28;20019;-74
2022/10/26 02:06:29;;;;;;;;;;;;;;;;;;6157190;28;20121;-74
2022/10/26 02:09:41;;;;;;;46.40;24.45;;;;;;;;;;6169703;28;19913;-74
2022/10/26 02:12:41;;;;;;;;;;;;;;;;;;6164076;28;20081;-74
2022/10/26 02:15:51;;;;;;;62.50;26.52;;;;;;;;;;6171864;28;19953;-74
2022/10/26 02:19:04;;;;;;;71.72;27.05;;;;;;;;;;6163062;28;20166;-74
2022/10/26 02:22:09;;;;;;;74.25;29.73;;;;;;;;;;6176311;28;20385;-75
2022/10/26 02:25:12;;;;;;;73.88;29.13;;;;;;;;;;6172709;28;20023;-75
2022/10/26 02:28:16;;;;;;;51.15;27.20;;;;;;;;;;6172522;28;20023;-74
2022/10/26 02:31:16;;;;;;;70.05;28.17;;;;;;;;;;6169538;28;20461;-74
2022/10/26 02:34:19;;;;;;;62.47;26.45;;;;;;;;;;6184478;28;20395;-74
2022/10/26 02:37:20;;;;;;;68.30;28.27;;;;;;;;;;6171232;28;20023;-75
2022/10/26 02:40:23;;;;;;;159.73;31.65;;;;;;;;;;6170554;28;20074;-74
2022/10/26 02:43:25;;;;;;;65.97;27.52;;;;;;;;;;6172529;28;20061;-74
2022/10/26 02:46:25;;;;;;;;;;;;;;;;;;6175443;28;20070;-74
2022/10/26 02:49:26;;;;;;;96.18;28.70;;;;;;;;;;6170530;28;19968;-74
2022/10/26 02:52:41;;;;;;;85.53;26.75;;;;;;;;;;6170554;28;20478;-74
2022/10/26 02:55:47;;;;;;;62.72;26.33;;;;;;;;;;6170921;28;20023;-74
2022/10/26 02:58:49;;;;;;;56.05;26.02;;;;;;;;;;6183371;28;20474;-74
2022/10/26 03:01:50;;;;;;;53.33;26.45;;;;;;;;;;6172018;28;20098;-73
2022/10/26 03:04:51;;;;;;;56.33;23.52;;;;;;;;;;6175483;28;20052;-73
2022/10/26 03:07:51;;;;;;;57.17;24.77;;;;;;;;;;6179109;28;20094;-74
2022/10/26 03:10:51;;;;;;;57.23;26.23;;;;;;;;;;6172449;28;20118;-74
2022/10/26 03:13:52;;;;;;;52.65;25.75;;;;;;;;;;6174209;28;20019;-74
2022/10/26 03:16:52;;;;;;;52.70;27.93;;;;;;;;;;6180172;28;20018;-74
2022/10/26 03:19:53;;;;;;;46.93;26.00;;;;;;;;;;6174451;28;20029;-75
2022/10/26 03:22:55;;;;;;;55.30;27.90;;;;;;;;;;6171676;28;20340;-74
2022/10/26 03:25:56;;;;;;;45.55;23.88;;;;;;;;;;6151002;28;20018;-74
2022/10/26 03:28:56;;;;;;;49.25;25.83;;;;;;;;;;6157721;28;20038;-73
2022/10/26 03:31:56;;;;;;;47.53;23.55;;;;;;;;;;6172896;28;20034;-74
2022/10/26 03:34:57;;;;;;;48.10;25.58;;;;;;;;;;6156157;28;20399;-75
2022/10/26 03:37:57;;;;;;;47.15;23.58;;;;;;;;;;6165975;28;20038;-74
2022/10/26 03:40:57;;;;;;;49.43;23.13;;;;;;;;;;6175007;28;20026;-74
2022/10/26 03:43:57;;;;;;;43.87;23.87;;;;;;;;;;6173020;28;20106;-74
2022/10/26 03:46:57;;;;;;;43.08;23.25;;;;;;;;;;6157959;28;20109;-74
2022/10/26 03:49:58;;;;;;;48.10;24.53;;;;;;;;;;6173638;28;20419;-74
2022/10/26 03:52:58;;;;;;;43.17;21.90;;;;;;;;;;6165443;28;20490;-74
2022/10/26 03:55:58;;;;;;;41.70;23.25;;;;;;;;;;6187719;28;20026;-74
2022/10/26 03:58:58;;;;;;;38.10;20.48;;;;;;;;;;6174272;28;20033;-73
2022/10/26 04:01:59;;;;;;;43.30;21.53;;;;;;;;;;6174921;28;20026;-74
2022/10/26 04:04:59;;;;;;;42.97;23.75;;;;;;;;;;6152215;28;20207;-74
2022/10/26 04:08:01;;;;;;;52.27;24.40;;;;;;;;;;6179256;28;20325;-74
2022/10/26 04:11:02;;;;;;;43.83;23.25;;;;;;;;;;6180807;28;20735;-74
2022/10/26 04:14:02;;;;;;;41.85;21.63;;;;;;;;;;6186300;28;20031;-75
2022/10/26 04:17:02;;;;;;;48.70;25.58;;;;;;;;;;6166963;28;20082;-74
2022/10/26 04:20:02;;;;;;;44.83;25.27;;;;;;;;;;6179099;28;20332;-75
2022/10/26 04:23:04;;;;;;;47.33;25.50;;;;;;;;;;6180323;28;20293;-74
2022/10/26 04:26:04;;;;;;;49.65;24.38;;;;;;;;;;6173928;28;20030;-74
2022/10/26 04:29:05;;;;;;;46.70;24.45;;;;;;;;;;6170039;28;20030;-73
2022/10/26 04:32:06;;;;;;;45.60;21.33;;;;;;;;;;6160463;28;20030;-74
2022/10/26 04:35:06;;;;;;;39.92;20.33;;;;;;;;;;6177063;28;20272;-75
2022/10/26 04:38:06;;;;;;;34.00;20.05;;;;;;;;;;6156777;28;20081;-74
2022/10/26 04:41:06;;;;;;;47.80;23.13;;;;;;;;;;6186329;28;20035;-74
2022/10/26 04:44:07;;;;;;;40.70;25.02;;;;;;;;;;6168625;28;20360;-73
2022/10/26 04:47:07;;;;;;;47.15;23.00;;;;;;;;;;6171451;28;20027;-74
2022/10/26 04:50:08;;;;;;;52.70;24.75;;;;;;;;;;6162843;28;20047;-74
2022/10/26 04:53:09;;;;;;;37.92;20.77;;;;;;;;;;6173547;28;20026;-75
2022/10/26 04:56:09;;;;;;;42.83;23.33;;;;;;;;;;6172458;28;20419;-73
2022/10/26 04:59:09;;;;;;;44.60;23.55;;;;;;;;;;6173084;28;20434;-74
2022/10/26 05:02:09;;;;;;;50.15;22.85;;;;;;;;;;6173303;28;20341;-73
2022/10/26 05:05:09;;;;;;;49.55;25.30;;;;;;;;;;6173393;28;20042;-73
2022/10/26 05:08:10;;;;;;;49.17;25.47;;;;;;;;;;6162038;28;20047;-73
2022/10/26 05:11:10;;;;;;;48.65;25.58;;;;;;;;;;6169727;28;20062;-74
2022/10/26 05:14:11;;;;;;;50.60;22.70;;;;;;;;;;6169735;28;20039;-73
2022/10/26 05:17:12;;;;;;;46.78;22.65;;;;;;;;;;6171242;28;20042;-74
2022/10/26 05:20:13;;;;;;;50.92;24.98;;;;;;;;;;6168593;28;20537;-74
2022/10/26 05:23:17;;;;;;;69.70;28.10;;;;;;;;;;6162115;28;20030;-74
2022/10/26 05:26:17;;;;;;;56.95;25.73;;;;;;;;;;6156309;28;20023;-73
2022/10/26 05:29:17;;;;;;;118.13;33.10;;;;;;;;;;6156283;28;20022;-74
2022/10/26 05:32:17;;;;;;;140.77;34.63;;;;;;;;;;6158397;28;20753;-74
2022/10/26 05:35:17;;;;;;;169.75;37.33;;;;;;;;;;6167978;28;20027;-74
2022/10/26 05:38:18;;;;;;;123.07;31.10;;;;;;;;;;6160173;28;20469;-73
2022/10/26 05:41:18;;;;;;;101.83;30.80;;;;;;;;;;6155083;28;20027;-74
2022/10/26 05:44:18;;;;;;;77.80;27.33;;;;;;;;;;6164237;28;20489;-74
2022/10/26 05:47:18;;;;;;;226.32;36.22;;;;;;;;;;6150823;28;20110;-74
2022/10/26 05:50:18;;;;;;;98.63;31.48;;;;;;;;;;6159170;28;20031;-73
2022/10/26 05:53:19;;;;;;;66.45;28.60;;;;;;;;;;6169378;28;20138;-73
2022/10/26 05:56:20;;;;;;;72.87;30.00;;;;;;;;;;6158317;28;20027;-74
2022/10/26 05:59:20;;;;;;;72.47;30.80;;;;;;;;;;6161203;28;20430;-74
2022/10/26 06:02:28;;;;;;;58.78;29.90;;;;;;;;;;6163451;28;20019;-73
2022/10/26 06:05:31;;;;;;;50.70;28.55;;;;;;;;;;6164394;28;20302;-74
2022/10/26 06:08:32;;;;;;;42.75;25.13;;;;;;;;;;6161500;28;20018;-74
2022/10/26 06:11:32;;;;;;;48.47;27.60;;;;;;;;;;6161753;28;20479;-74
2022/10/26 06:14:33;;;;;;;47.07;26.77;;;;;;;;;;6162307;28;20462;-73
2022/10/26 06:17:42;;;;;;;42.17;26.55;;;;;;;;;;6168655;28;20468;-74
2022/10/26 06:21:01;;;;;;;33.70;21.88;;;;;;;;;;6171017;28;20023;-74
2022/10/26 06:24:11;;;;;;;39.80;25.20;;;;;;;;;;6165544;28;20043;-74
2022/10/26 06:27:20;;;;;;;33.85;22.23;;;;;;;;;;6170230;28;20015;-74
2022/10/26 06:30:22;;;;;;;33.08;22.70;;;;;;;;;;6164236;28;20042;-74
2022/10/26 06:33:23;;;;;;;30.55;21.60;;;;;;;;;;6163488;28;20562;-74
2022/10/26 06:36:25;;;;;;;33.97;23.33;;;;;;;;;;6168830;28;20027;-75
2022/10/26 06:39:27;;;;;;;32.83;22.75;;;;;;;;;;6171659;28;20019;-74
2022/10/26 06:42:29;;;;;;;29.40;19.98;;;;;;;;;;6171014;28;20019;-74
2022/10/26 06:45:30;;;;;;;35.10;24.52;;;;;;;;;;6168459;28;20022;-72
2022/10/26 06:48:34;;;;;;;36.97;28.03;;;;;;;;;;6163030;28;20382;-74
2022/10/26 06:51:37;;;;;;;40.83;36.22;;;;;;;;;;6171488;28;20074;-75
2022/10/26 06:54:48;;;;;;;36.63;26.27;;;;;;;;;;6169804;28;20178;-72
2022/10/26 06:57:48;;;;;;;30.10;21.20;;;;;;;;;;6162859;28;20010;-72
2022/10/26 07:00:50;;;;;;;24.00;18.83;;;;;;;;;;6167480;28;20046;-73
2022/10/26 07:03:50;;;;;;;23.30;17.73;;;;;;;;;;6166970;28;20426;-72
2022/10/26 07:06:50;;;;;;;26.77;19.13;;;;;;;;;;6171473;28;20075;-72
2022/10/26 07:09:51;;;;;;;28.53;18.87;;;;;;;;;;6175105;28;20011;-72
2022/10/26 07:12:51;;;;;;;22.97;15.67;;;;;;;;;;6174960;28;20019;-72
2022/10/26 07:15:51;;;;;;;22.88;15.80;;;;;;;;;;6167285;28;20035;-72
2022/10/26 07:18:52;;;;;;;25.05;16.35;;;;;;;;;;6164727;28;20110;-73
2022/10/26 07:21:55;;;;;;;22.43;15.60;;;;;;;;;;6159434;28;20019;-72
2022/10/26 07:24:56;;;;;;;23.63;15.50;;;;;;;;;;6158642;28;20027;-72
2022/10/26 07:27:57;;;;;;;19.70;15.98;;;;;;;;;;6162248;28;20038;-72
2022/10/26 07:30:57;;;;;;;24.98;16.08;;;;;;;;;;6156433;28;20030;-72
2022/10/26 07:33:57;;;;;;;21.80;15.27;;;;;;;;;;6172182;28;20077;-72
2022/10/26 07:36:58;;;;;;;20.30;15.43;;;;;;;;;;6172189;28;20483;-71
2022/10/26 07:39:58;;;;;;;19.93;15.17;;;;;;;;;;6171906;28;20026;-72
2022/10/26 07:42:59;;;;;;;26.30;15.23;;;;;;;;;;6172042;28;20023;-72
2022/10/26 07:45:59;;;;;;;26.20;15.95;;;;;;;;;;6168613;28;20030;-73
2022/10/26 07:48:59;;;;;;;22.83;15.93;;;;;;;;;;6169585;28;20030;-72
2022/10/26 07:52:00;;;;;;;27.02;17.38;;;;;;;;;;6170671;28;20073;-72
2022/10/26 07:55:00;;;;;;;32.30;17.10;;;;;;;;;;6169032;28;20118;-72
2022/10/26 07:58:00;;;;;;;27.10;17.40;;;;;;;;;;6168527;28;20022;-72
2022/10/26 08:01:07;;;;;;;26.90;18.17;;;;;;;;;;6173916;28;20069;-72
2022/10/26 08:04:07;;;;;;;26.35;16.08;;;;;;;;;;6165936;28;20023;-72
2022/10/26 08:07:07;;;;;;;24.13;14.10;;;;;;;;;;6163648;28;20043;-73
2022/10/26 08:10:08;;;;;;;20.40;12.52;;;;;;;;;;6170606;28;20106;-72
2022/10/26 08:13:08;;;;;;;18.03;12.83;;;;;;;;;;6166291;28;20329;-72
2022/10/26 08:16:09;;;;;;;20.80;12.10;;;;;;;;;;6165132;28;20073;-72
2022/10/26 08:19:09;;;;;;;21.73;13.10;;;;;;;;;;6156581;28;20380;-72
2022/10/26 08:22:09;;;;;;;23.35;12.10;;;;;;;;;;6172652;28;20125;-72
2022/10/26 08:25:09;;;;;;;23.27;12.63;;;;;;;;;;6170269;28;20029;-72
2022/10/26 08:28:09;;;;;;;20.63;11.87;;;;;;;;;;6176124;28;20017;-72
2022/10/26 08:31:10;;;;;;;22.05;12.23;;;;;;;;;;6158974;28;20015;-72
2022/10/26 08:34:10;;;;;;;24.58;11.80;;;;;;;;;;6164062;28;20507;-72
2022/10/26 08:37:10;;;;;;;18.67;11.23;;;;;;;;;;6170631;28;20014;-72
2022/10/26 08:40:14;;;;;;;16.17;10.40;;;;;;;;;;6156093;28;20378;-72
2022/10/26 08:43:17;;;;;;;19.42;11.82;;;;;;;;;;6173738;28;20029;-72
2022/10/26 08:46:22;;;;;;;18.13;10.35;;;;;;;;;;6161817;28;20078;-73
2022/10/26 08:49:24;;;;;;;19.98;10.73;;;;;;;;;;6165472;28;20033;-73
2022/10/26 08:52:30;;;;;;;26.15;12.15;;;;;;;;;;6165138;28;20479;-72
2022/10/26 08:55:33;;;;;;;22.98;10.70;;;;;;;;;;6171936;28;20114;-72
2022/10/26 08:58:37;;;;;;;24.52;10.45;;;;;;;;;;6149117;28;20023;-72
2022/10/26 09:01:37;;;;;;;17.52;8.70;;;;;;;;;;6166269;28;20031;-73
2022/10/26 09:04:38;;;;;;;16.83;9.07;;;;;;;;;;6156206;28;20117;-73
2022/10/26 09:07:43;;;;;;;20.27;11.00;;;;;;;;;;6158157;28;20042;-72
2022/10/26 09:10:58;;;;;;;23.33;8.20;;;;;;;;;;6161306;28;20011;-73
2022/10/26 09:14:30;;;;;;;15.45;9.20;;;;;;;;;;6149178;28;20062;-73
2022/10/26 09:17:52;;;;;;;16.35;8.80;;;;;;;;;;6133034;28;20522;-72
2022/10/26 09:20:52;;;;;;;18.90;10.43;;;;;;;;;;6151869;28;20492;-72
2022/10/26 09:23:52;;;;;;;14.30;9.20;;;;;;;;;;6162521;28;20472;-72
2022/10/26 09:26:53;;;;;;;16.63;9.63;;;;;;;;;;6171685;28;20081;-73
2022/10/26 09:29:55;;;;;;;16.48;8.80;;;;;;;;;;6177135;28;20089;-73
2022/10/26 09:32:57;;;;;;;18.40;7.60;;;;;;;;;;6151968;28;20038;-72
2022/10/26 09:36:07;;;;;;;16.02;8.73;;;;;;;;;;6169205;28;20038;-72
2022/10/26 09:39:13;;;;;;;12.93;7.07;;;;;;;;;;6158063;28;20109;-72
2022/10/26 09:42:31;;;;;;;11.93;7.55;;;;;;;;;;6160434;28;20035;-72
2022/10/26 09:45:33;;;;;;;12.80;8.13;;;;;;;;;;6152055;28;20050;-72
2022/10/26 09:48:47;;;;;;;13.18;6.97;;;;;;;;;;6172112;28;20376;-72
2022/10/26 09:51:47;;;;;;;15.02;7.38;;;;;;;;;;6165849;28;20035;-73
2022/10/26 09:54:47;;;;;;;11.53;6.80;;;;;;;;;;6164629;28;20019;-73
2022/10/26 09:57:50;;;;;;;11.87;5.97;;;;;;;;;;6160791;28;20015;-73
2022/10/26 10:00:51;;;;;;;13.90;6.32;;;;;;;;;;6161721;28;20031;-73
2022/10/26 10:04:07;;;;;;;10.53;5.37;;;;;;;;;;6166674;28;20042;-72
2022/10/26 10:07:07;;;;;;;11.25;5.80;;;;;;;;;;6156983;28;20083;-72
2022/10/26 10:10:13;;;;;;;10.45;5.78;;;;;;;;;;6172802;28;20041;-72
2022/10/26 10:13:15;;;;;;;10.55;4.63;;;;;;;;;;6158757;28;20022;-72
2022/10/26 10:16:17;;;;;;;6.57;3.33;;;;;;;;;;6160592;28;20059;-72
2022/10/26 10:19:28;;;;;;;8.18;3.92;;;;;;;;;;6159209;28;20041;-72
2022/10/26 10:22:28;;;;;;;7.78;4.05;;;;;;;;;;6167990;28;20058;-72
2022/10/26 10:25:34;;;;;;;13.13;4.30;;;;;;;;;;6173989;28;20022;-72
2022/10/26 10:28:34;;;;;;;8.05;3.88;;;;;;;;;;6175793;28;20046;-72
2022/10/26 10:31:34;;;;;;;10.03;3.80;;;;;;;;;;6173296;28;20027;-72
2022/10/26 10:34:34;;;;;;;7.63;3.50;;;;;;;;;;6175943;28;20014;-72
2022/10/26 10:37:37;;;;;;;6.33;2.97;;;;;;;;;;6158277;28;20050;-72
2022/10/26 10:40:37;;;;;;;10.15;4.57;;;;;;;;;;6175185;28;20030;-72
2022/10/26 10:43:41;;;;;;;11.13;4.60;;;;;;;;;;6176091;28;20038;-72
2022/10/26 10:46:41;;;;;;;5.38;3.50;;;;;;;;;;6156428;28;20027;-72
2022/10/26 10:49:49;;;;;;;8.77;3.13;;;;;;;;;;6157823;28;20498;-73
2022/10/26 10:52:49;;;;;;;8.00;3.47;;;;;;;;;;6175623;28;20375;-73
2022/10/26 10:55:56;;;;;;;6.03;3.30;;;;;;;;;;6175938;28;20026;-73
2022/10/26 10:59:21;;;;;;;8.20;3.70;;;;;;;;;;6176092;28;20086;-73
2022/10/26 11:02:27;;;;;;;11.93;4.20;;;;;;;;;;6157094;28;20622;-73
2022/10/26 11:05:48;;;;;;;7.45;3.00;;;;;;;;;;6166996;28;20097;-72
2022/10/26 11:08:55;;;;;;;7.80;3.30;;;;;;;;;;6173476;28;20147;-72
2022/10/26 11:11:58;;;;;;;8.25;3.55;;;;;;;;;;6174838;28;20037;-72
2022/10/26 11:15:05;;;;;;;8.23;4.72;;;;;;;;;;6170075;28;20467;-72
2022/10/26 11:18:08;;;;;;;9.23;3.40;;;;;;;;;;6173274;28;20081;-72
2022/10/26 11:21:20;;;;;;;8.45;4.00;;;;;;;;;;6174069;28;20027;-72
2022/10/26 11:24:29;;;;;;;9.48;3.90;;;;;;;;;;6168994;28;20029;-72
2022/10/26 11:27:41;;;;;;;7.47;3.60;;;;;;;;;;6174684;28;20067;-72
2022/10/26 11:30:42;;;;;;;;;;;;;;;;;;6170043;28;20102;-72
2022/10/26 11:33:46;;;;;;;6.28;3.50;;;;;;;;;;6172301;28;19910;-72
2022/10/26 11:36:49;;;;;;;6.63;3.35;;;;;;;;;;6173297;28;20023;-74
2022/10/26 11:40:00;;;;;;;8.05;3.10;;;;;;;;;;6164213;28;20050;-73
2022/10/26 11:43:20;;;;;;;8.60;3.72;;;;;;;;;;6163042;28;20035;-72
2022/10/26 11:46:23;;;;;;;5.70;3.53;;;;;;;;;;6161932;28;20031;-72
2022/10/26 11:49:23;;;;;;;7.20;3.60;;;;;;;;;;6166203;28;20468;-72
2022/10/26 11:52:27;;;;;;;9.05;3.25;;;;;;;;;;6168736;28;20476;-72
2022/10/26 11:55:27;;;;;;;10.18;3.33;;;;;;;;;;6168268;28;20082;-72
2022/10/26 11:58:28;;;;;;;7.72;3.78;;;;;;;;;;6157589;28;20138;-73
2022/10/26 12:01:29;;;;;;;9.00;2.88;;;;;;;;;;6172920;28;20030;-73
2022/10/26 12:04:32;;;;;;;10.95;4.80;;;;;;;;;;6165891;28;20042;-72
2022/10/26 12:07:34;;;;;;;8.45;2.60;;;;;;;;;;6172299;28;20131;-73
2022/10/26 12:10:36;;;;;;;5.45;2.47;;;;;;;;;;6165497;28;20369;-72
2022/10/26 12:13:55;;;;;;;4.50;2.15;;;;;;;;;;6169808;28;20031;-73
2022/10/26 12:16:58;;;;;;;5.32;2.30;;;;;;;;;;6169892;28;20158;-73
2022/10/26 12:20:03;;;;;;;6.60;2.30;;;;;;;;;;6171634;28;20030;-73
2022/10/26 12:23:04;;;;;;;5.18;2.08;;;;;;;;;;6164407;28;20074;-73
2022/10/26 12:26:28;;;;;;;5.30;1.63;;;;;;;;;;6160818;28;20022;-72
2022/10/26 12:29:38;;;;;;;8.20;2.20;;;;;;;;;;6157468;28;20307;-72
2022/10/26 12:32:39;;;;;;;5.20;1.98;;;;;;;;;;6164015;28;20098;-72
2022/10/26 12:35:40;;;;;;;6.47;2.08;;;;;;;;;;6160991;28;20033;-73
2022/10/26 12:38:40;;;;;;;7.27;2.03;;;;;;;;;;6155916;28;20101;-72
2022/10/26 12:41:53;;;;;;;9.13;2.47;;;;;;;;;;6166417;28;20398;-72
2022/10/26 12:44:53;;;;;;;9.10;2.85;;;;;;;;;;6163677;28;20027;-72
2022/10/26 12:48:00;;;;;;;7.53;3.42;;;;;;;;;;6172246;28;20506;-72
2022/10/26 12:51:33;;;;;;;10.77;5.07;;;;;;;;;;6152054;28;20033;-73
2022/10/26 12:54:43;;;;;;;16.60;9.30;;;;;;;;;;6159232;28;20497;-73
2022/10/26 12:57:47;;;;;;;9.17;4.03;;;;;;;;;;6171542;28;20038;-73
2022/10/26 13:00:50;;;;;;;16.95;9.65;;;;;;;;;;6172131;28;20286;-73
2022/10/26 13:04:13;;;;;;;11.45;7.50;;;;;;;;;;6149844;28;20551;-73
2022/10/26 13:07:18;;;;;;;8.40;4.18;;;;;;;;;;6164772;28;20138;-73
2022/10/26 13:10:20;;;;;;;6.50;2.78;;;;;;;;;;6167295;28;20038;-73
2022/10/26 13:13:22;;;;;;;5.07;2.40;;;;;;;;;;6164606;28;20015;-73
2022/10/26 13:16:23;;;;;;;5.93;2.20;;;;;;;;;;6170814;28;20484;-73
2022/10/26 13:19:25;;;;;;;5.82;2.13;;;;;;;;;;6163869;28;20527;-73
2022/10/26 13:22:26;;;;;;;5.10;2.25;;;;;;;;;;6158995;28;20069;-73
2022/10/26 13:25:28;;;;;;;6.63;3.13;;;;;;;;;;6155245;28;20019;-73
2022/10/26 13:28:37;;;;;;;6.60;2.33;;;;;;;;;;6170892;28;20018;-74
2022/10/26 13:31:40;;;;;;;7.45;2.92;;;;;;;;;;6171669;28;20029;-73
2022/10/26 13:34:41;;;;;;;8.13;2.70;;;;;;;;;;6161869;28;20106;-73
2022/10/26 13:37:46;;;;;;;7.55;3.42;;;;;;;;;;6149191;28;20014;-73
2022/10/26 13:40:47;;;;;;;10.73;2.42;;;;;;;;;;6165483;28;20102;-72
2022/10/26 13:43:47;;;;;;;8.77;2.88;;;;;;;;;;6151733;28;20231;-73
2022/10/26 13:46:53;;;;;;;7.37;2.90;;;;;;;;;;6161517;28;20496;-74
2022/10/26 13:49:54;;;;;;;7.53;2.38;;;;;;;;;;6154031;28;20431;-74
2022/10/26 13:52:54;;;;;;;;;;;;;;;;;;6170531;28;20085;-74
2022/10/26 13:56:27;;;;;;;11.85;3.03;;;;;;;;;;6171563;28;19910;-74
2022/10/26 13:59:29;;;;;;;9.75;3.50;;;;;;;;;;6132049;28;20122;-74
2022/10/26 14:02:29;;;;;;;10.40;4.47;;;;;;;;;;6165567;28;20015;-73
2022/10/26 14:05:30;;;;;;;9.93;3.97;;;;;;;;;;6160889;28;20054;-73
2022/10/26 14:08:30;;;;;;;30.55;18.20;;;;;;;;;;6164716;28;20054;-73
2022/10/26 14:11:35;;;;;;;18.63;9.17;;;;;;;;;;6171504;28;20022;-73
2022/10/26 14:14:37;;;;;;;13.18;4.88;;;;;;;;;;6155146;28;20034;-73
2022/10/26 14:17:37;;;;;;;109.72;53.63;;;;;;;;;;6158907;28;20032;-74
2022/10/26 14:20:37;;;;;;;64.30;33.77;;;;;;;;;;6161454;28;20587;-74
2022/10/26 14:23:45;;;;;;;22.53;10.90;;;;;;;;;;6171226;28;20018;-75
2022/10/26 14:26:45;;;;;;;16.40;6.93;;;;;;;;;;6168885;28;20023;-74
2022/10/26 14:29:46;;;;;;;9.03;4.90;;;;;;;;;;6166017;28;20015;-75
2022/10/26 14:32:46;;;;;;;6.53;3.13;;;;;;;;;;6158143;28;20027;-74
2022/10/26 14:35:46;;;;;;;7.53;2.80;;;;;;;;;;6159040;28;20019;-73
2022/10/26 14:38:49;;;;;;;10.73;3.00;;;;;;;;;;6135990;28;20035;-73
2022/10/26 14:41:51;;;;;;;6.03;2.38;;;;;;;;;;6172436;28;20094;-73
2022/10/26 14:44:51;;;;;;;4.53;2.25;;;;;;;;;;6141638;28;20019;-73
2022/10/26 14:47:52;;;;;;;9.60;3.03;;;;;;;;;;6159899;28;20019;-73
2022/10/26 14:51:08;;;;;;;7.07;2.10;;;;;;;;;;6172410;28;20505;-73
2022/10/26 14:54:19;;;;;;;19.83;8.20;;;;;;;;;;6172275;28;20026;-73
2022/10/26 14:57:36;;;;;;;21.92;10.18;;;;;;;;;;6155604;28;20026;-73
2022/10/26 15:00:36;;;;;;;24.20;10.48;;;;;;;;;;6164900;28;20031;-73
2022/10/26 15:03:36;;;;;;;17.20;6.67;;;;;;;;;;6148005;28;20859;-73
2022/10/26 15:06:39;;;;;;;16.37;6.77;;;;;;;;;;6148018;28;20115;-73
2022/10/26 15:09:42;;;;;;;20.35;9.73;;;;;;;;;;6171474;28;20038;-73
2022/10/26 15:12:43;;;;;;;30.80;15.20;;;;;;;;;;6168141;28;20114;-73
2022/10/26 15:15:43;;;;;;;16.20;6.47;;;;;;;;;;6166302;28;20097;-73
2022/10/26 15:18:50;;;;;;;19.83;8.80;;;;;;;;;;6175419;28;20072;-73
2022/10/26 15:21:51;;;;;;;17.75;8.02;;;;;;;;;;6173773;28;20026;-73
2022/10/26 15:24:53;;;;;;;23.52;9.23;;;;;;;;;;6177486;28;20109;-74
2022/10/26 15:27:53;;;;;;;20.42;9.55;;;;;;;;;;6163946;28;20023;-72
2022/10/26 15:31:23;;;;;;;33.20;16.30;;;;;;;;;;6169204;28;20027;-72
2022/10/26 15:34:23;;;;;;;30.73;15.55;;;;;;;;;;6167562;28;20033;-73
2022/10/26 15:37:23;;;;;;;22.38;13.60;;;;;;;;;;6164904;28;20393;-74
2022/10/26 15:40:24;;;;;;;22.40;14.88;;;;;;;;;;6163016;28;20019;-73
2022/10/26 15:43:24;;;;;;;35.13;20.30;;;;;;;;;;6166015;28;20015;-73
2022/10/26 15:46:27;;;;;;;41.25;22.27;;;;;;;;;;6172990;28;20026;-74
2022/10/26 15:49:28;;;;;;;37.53;20.27;;;;;;;;;;6159281;28;20015;-73
2022/10/26 15:52:29;;;;;;;54.70;27.80;;;;;;;;;;6157695;28;20031;-73
2022/10/26 15:55:30;;;;;;;41.25;20.42;;;;;;;;;;6152534;28;20042;-74
2022/10/26 15:58:30;;;;;;;41.07;21.83;;;;;;;;;;6152234;28;20046;-72
2022/10/26 16:01:30;;;;;;;43.43;20.07;;;;;;;;;;6155563;28;20077;-72
2022/10/26 16:04:31;;;;;;;32.80;17.43;;;;;;;;;;6152251;28;20035;-72
2022/10/26 16:07:31;;;;;;;33.97;17.33;;;;;;;;;;6152017;28;20067;-74
2022/10/26 16:10:31;;;;;;;37.37;19.87;;;;;;;;;;6154040;28;20035;-73
2022/10/26 16:13:31;;;;;;;36.67;18.70;;;;;;;;;;6155800;28;20034;-73
2022/10/26 16:16:32;;;;;;;32.25;15.98;;;;;;;;;;6160368;28;20022;-73
2022/10/26 16:19:32;;;;;;;31.80;14.87;;;;;;;;;;6165779;28;20048;-73
2022/10/26 16:22:32;;;;;;;29.60;14.33;;;;;;;;;;6172020;28;20018;-73
2022/10/26 16:25:34;;;;;;;23.52;12.30;;;;;;;;;;6167983;28;20093;-73
2022/10/26 16:28:34;;;;;;;30.50;14.27;;;;;;;;;;6158850;28;20031;-73
2022/10/26 16:31:35;;;;;;;28.00;14.50;;;;;;;;;;6173739;28;20402;-73
2022/10/26 16:34:35;;;;;;;29.50;15.80;;;;;;;;;;6165681;28;20026;-74
2022/10/26 16:37:35;;;;;;;26.33;15.55;;;;;;;;;;6168975;28;20105;-73
2022/10/26 16:40:35;;;;;;;23.47;14.13;;;;;;;;;;6162819;28;20054;-72
2022/10/26 16:43:39;;;;;;;31.97;16.17;;;;;;;;;;6172161;28;20034;-73
2022/10/26 16:46:40;;;;;;;25.10;14.73;;;;;;;;;;6174077;28;20343;-73
2022/10/26 16:49:42;;;;;;;25.88;14.23;;;;;;;;;;6180069;28;20590;-73
2022/10/26 16:52:42;;;;;;;29.33;13.75;;;;;;;;;;6174530;28;20007;-74
2022/10/26 16:55:43;;;;;;;35.43;15.57;;;;;;;;;;6159413;28;20019;-73
2022/10/26 16:58:43;;;;;;;30.83;16.40;;;;;;;;;;6154071;28;20011;-73
2022/10/26 17:01:43;;;;;;;43.33;19.50;;;;;;;;;;6172575;28;20105;-73
2022/10/26 17:04:43;;;;;;;39.30;16.47;;;;;;;;;;6156421;28;20041;-73
2022/10/26 17:07:45;;;;;;;36.30;17.00;;;;;;;;;;6163489;28;20051;-72
2022/10/26 17:10:45;;;;;;;31.25;15.70;;;;;;;;;;6159727;28;20034;-73
2022/10/26 17:13:46;;;;;;;35.13;16.87;;;;;;;;;;6154204;28;20475;-72
2022/10/26 17:16:47;;;;;;;28.60;17.40;;;;;;;;;;6162084;28;20035;-74
2022/10/26 17:19:47;;;;;;;18.75;10.45;;;;;;;;;;6159387;28;20031;-73
2022/10/26 17:22:47;;;;;;;23.08;10.73;;;;;;;;;;6153149;28;20138;-72
2022/10/26 17:25:48;;;;;;;17.75;8.50;;;;;;;;;;6156570;28;20235;-73
2022/10/26 17:28:52;;;;;;;15.53;8.70;;;;;;;;;;6170773;28;20023;-73
2022/10/26 17:31:54;;;;;;;18.27;8.77;;;;;;;;;;6138566;28;20019;-73
2022/10/26 17:34:54;;;;;;;18.25;8.35;;;;;;;;;;6156380;28;20015;-73
2022/10/26 17:37:54;;;;;;;21.25;11.32;;;;;;;;;;6167967;28;20045;-73
2022/10/26 17:40:58;;;;;;;28.80;14.10;;;;;;;;;;6171609;28;20862;-72
2022/10/26 17:43:58;;;;;;;28.55;14.73;;;;;;;;;;6153839;28;20027;-73
2022/10/26 17:46:58;;;;;;;24.25;13.40;;;;;;;;;;6161249;28;20062;-73
2022/10/26 17:49:59;;;;;;;38.55;18.10;;;;;;;;;;6168958;28;20035;-73
2022/10/26 17:52:59;;;;;;;29.93;16.03;;;;;;;;;;6168336;28;20547;-73
2022/10/26 17:56:19;;;;;;;31.73;15.35;;;;;;;;;;6160169;28;20472;-73